createdAt,value
2022-11-19T00:02:24.025Z,98382.47
2022-11-19T00:04:52.780Z,98445.94
2022-11-19T00:07:20.546Z,98444.59
2022-11-19T00:09:48.508Z,98398.78
2022-11-19T00:12:35.168Z,98452.13
2022-11-19T00:15:03.417Z,98454.81
2022-11-19T00:17:31.494Z,98457.31
2022-11-19T00:19:59.275Z,98395.63
2022-11-19T00:22:27.587Z,98422.81
2022-11-19T00:24:56.256Z,98452.69
2022-11-19T00:27:24.228Z,98402.84
2022-11-19T00:29:52.092Z,98461.25
2022-11-19T00:32:20.121Z,98475.25
2022-11-19T00:34:48.005Z,98408.59
2022-11-19T00:37:16.327Z,98461.47
2022-11-19T00:39:44.248Z,98471.41
2022-11-19T00:42:12.096Z,98471.34
2022-11-19T00:44:40.348Z,98470.22
2022-11-19T00:47:08.162Z,98475.78
2022-11-19T00:49:36.007Z,98471.59
2022-11-19T00:52:04.739Z,98482.78
2022-11-19T00:54:33.639Z,98476.41
2022-11-19T00:57:01.447Z,98388.63
2022-11-19T00:59:29.701Z,98471.56
2022-11-19T01:01:58.072Z,98477.63
2022-11-19T01:04:25.936Z,98464.03
2022-11-19T01:06:54.307Z,98453.75
2022-11-19T01:09:22.405Z,98463.63
2022-11-19T01:11:50.383Z,98476.47
2022-11-19T01:14:18.340Z,98472.00
2022-11-19T01:16:46.172Z,98477.03
2022-11-19T01:19:16.967Z,98440.28
2022-11-19T01:21:45.903Z,98441.28
2022-11-19T01:24:13.906Z,98438.69
2022-11-19T01:26:45.710Z,98497.34
2022-11-19T01:29:14.599Z,98450.25
2022-11-19T01:31:42.450Z,98503.19
2022-11-19T01:34:10.439Z,98472.47
2022-11-19T01:36:38.469Z,98503.44
2022-11-19T01:39:06.367Z,98498.63
2022-11-19T01:41:34.642Z,98448.03
2022-11-19T01:44:08.350Z,98453.25
2022-11-19T01:46:38.725Z,98500.53
2022-11-19T01:49:20.725Z,98510.13
2022-11-19T01:52:00.824Z,98505.56
2022-11-19T01:54:44.752Z,98512.16
2022-11-19T01:57:16.704Z,98457.81
2022-11-19T01:59:46.847Z,98421.09
2022-11-19T02:02:15.585Z,98497.19
2022-11-19T02:04:44.043Z,98486.38
2022-11-19T02:07:13.702Z,98489.06
2022-11-19T02:09:42.604Z,98519.09
2022-11-19T02:12:52.685Z,98408.47
2022-11-19T02:15:36.993Z,98475.00
2022-11-19T02:18:30.516Z,98530.31
2022-11-19T02:21:16.074Z,98524.09
2022-11-19T02:24:26.379Z,98532.84
2022-11-19T02:27:24.281Z,98529.75
2022-11-19T02:30:18.793Z,98509.44
2022-11-19T02:33:22.777Z,98484.25
2022-11-19T02:36:41.207Z,98531.91
2022-11-19T02:39:51.361Z,98519.44
2022-11-19T02:42:44.632Z,98512.28
2022-11-19T02:45:31.001Z,98537.41
2022-11-19T02:48:25.354Z,98534.69
2022-11-19T02:50:58.232Z,98533.44
2022-11-19T02:53:26.519Z,98492.78
2022-11-19T02:56:12.509Z,98496.00
2022-11-19T02:59:11.388Z,98486.34
2022-11-19T03:02:19.301Z,98547.69
2022-11-19T03:04:47.572Z,98542.19
2022-11-19T03:07:19.781Z,98545.50
2022-11-19T03:10:01.234Z,98548.13
2022-11-19T03:12:53.551Z,98552.06
2022-11-19T03:15:53.430Z,98557.72
2022-11-19T03:19:06.225Z,98562.72
2022-11-19T03:22:00.737Z,98572.19
2022-11-19T03:24:54.690Z,98576.47
2022-11-19T03:27:44.165Z,98584.41
2022-11-19T03:30:14.842Z,98572.72
2022-11-19T03:33:10.990Z,98530.38
2022-11-19T03:35:52.156Z,98599.50
2022-11-19T03:38:30.532Z,98587.31
2022-11-19T03:41:01.514Z,98550.56
2022-11-19T03:43:36.632Z,98479.16
2022-11-19T03:46:10.238Z,98599.91
2022-11-19T03:48:40.429Z,98605.38
2022-11-19T03:51:19.079Z,98580.34
2022-11-19T03:53:47.910Z,98565.72
2022-11-19T03:56:22.178Z,98561.91
2022-11-19T03:58:50.363Z,98616.09
2022-11-19T04:01:18.309Z,98611.03
2022-11-19T04:04:06.230Z,98559.38
2022-11-19T04:06:34.360Z,98618.53
2022-11-19T04:09:02.275Z,98582.03
2022-11-19T04:11:31.662Z,98629.06
2022-11-19T04:13:59.689Z,98628.16
2022-11-19T04:16:27.673Z,98638.56
2022-11-19T04:18:56.034Z,98583.47
2022-11-19T04:21:24.123Z,98633.75
2022-11-19T04:23:51.976Z,98636.56
2022-11-19T04:26:19.982Z,98650.72
2022-11-19T04:28:47.945Z,98644.84
2022-11-19T04:31:17.975Z,98611.47
2022-11-19T04:33:46.436Z,98656.88
2022-11-19T04:36:14.561Z,98598.72
2022-11-19T04:38:42.554Z,98622.00
2022-11-19T04:41:11.166Z,98673.16
2022-11-19T04:43:39.196Z,98666.25
2022-11-19T04:46:07.082Z,98659.47
2022-11-19T04:48:35.278Z,98659.72
2022-11-19T04:51:04.737Z,98634.50
2022-11-19T04:53:32.611Z,98666.00
2022-11-19T04:56:03.701Z,98659.09
2022-11-19T04:58:31.638Z,98621.63
2022-11-19T05:00:59.441Z,98623.22
2022-11-19T05:03:27.415Z,98631.06
2022-11-19T05:05:55.883Z,98685.28
2022-11-19T05:08:24.203Z,98638.38
2022-11-19T05:10:52.299Z,98682.66
2022-11-19T05:13:20.474Z,98671.94
2022-11-19T05:15:48.335Z,98677.72
2022-11-19T05:18:16.417Z,98678.63
2022-11-19T05:20:44.354Z,98646.38
2022-11-19T05:23:12.821Z,98691.06
2022-11-19T05:25:40.703Z,98698.88
2022-11-19T05:28:08.669Z,98680.22
2022-11-19T05:30:36.486Z,98691.88
2022-11-19T05:33:04.471Z,98711.63
2022-11-19T05:35:32.955Z,98710.88
2022-11-19T05:38:00.974Z,98719.97
2022-11-19T05:40:29.162Z,98724.03
2022-11-19T05:43:07.296Z,98736.88
2022-11-19T05:45:35.507Z,98700.47
2022-11-19T05:48:03.817Z,98741.63
2022-11-19T05:50:31.732Z,98739.97
2022-11-19T05:53:05.417Z,98747.63
2022-11-19T05:55:33.519Z,98712.88
2022-11-19T05:58:01.466Z,98757.84
2022-11-19T06:00:29.531Z,98737.31
2022-11-19T06:02:57.788Z,98763.16
2022-11-19T06:05:25.811Z,98769.38
2022-11-19T06:07:53.645Z,98775.09
2022-11-19T06:10:21.896Z,98731.56
2022-11-19T06:12:50.109Z,98768.13
2022-11-19T06:15:18.439Z,98770.91
2022-11-19T06:17:46.442Z,98682.31
2022-11-19T06:20:14.412Z,98720.28
2022-11-19T06:22:42.388Z,98749.63
2022-11-19T06:25:10.514Z,98783.97
2022-11-19T06:27:38.389Z,98784.25
2022-11-19T06:30:08.013Z,98801.22
2022-11-19T06:32:36.220Z,98782.03
2022-11-19T06:35:04.633Z,98811.75
2022-11-19T06:37:32.925Z,98809.88
2022-11-19T06:40:00.875Z,98814.09
2022-11-19T06:42:37.927Z,98770.44
2022-11-19T06:45:09.681Z,98827.69
2022-11-19T06:47:37.971Z,98822.63
2022-11-19T06:50:08.576Z,98829.47
2022-11-19T06:52:36.979Z,98839.56
2022-11-19T06:55:05.626Z,98825.78
2022-11-19T06:57:33.673Z,98826.78
2022-11-19T07:00:01.693Z,98828.97
2022-11-19T07:02:29.659Z,98829.69
2022-11-19T07:04:57.828Z,98763.06
2022-11-19T07:07:25.788Z,98803.13
2022-11-19T07:09:53.689Z,98847.97
2022-11-19T07:12:21.765Z,98842.13
2022-11-19T07:14:49.549Z,98848.00
2022-11-19T07:17:17.466Z,98849.34
2022-11-19T07:19:45.744Z,98813.72
2022-11-19T07:22:13.655Z,98806.47
2022-11-19T07:24:41.616Z,98819.22
2022-11-19T07:27:10.175Z,98858.53
2022-11-19T07:29:38.933Z,98864.44
2022-11-19T07:32:06.987Z,98861.91
2022-11-19T07:34:35.558Z,98830.34
2022-11-19T07:37:03.832Z,98818.19
2022-11-19T07:39:31.961Z,98867.28
2022-11-19T07:42:18.781Z,98871.94
2022-11-19T07:44:54.980Z,98873.59
2022-11-19T07:47:24.090Z,98885.25
2022-11-19T07:49:52.230Z,98866.00
2022-11-19T07:52:21.211Z,98873.59
2022-11-19T07:54:49.611Z,98886.72
2022-11-19T07:57:17.520Z,98885.53
2022-11-19T07:59:45.551Z,98877.91
2022-11-19T08:02:15.306Z,98822.53
2022-11-19T08:04:46.658Z,98879.66
2022-11-19T08:07:14.702Z,98882.06
2022-11-19T08:09:43.266Z,98906.75
2022-11-19T08:12:11.339Z,98907.09
2022-11-19T08:14:39.336Z,98876.03
2022-11-19T08:17:26.737Z,98883.25
2022-11-19T08:19:54.774Z,98918.53
2022-11-19T08:22:22.811Z,98922.69
2022-11-19T08:24:51.641Z,98930.44
2022-11-19T08:27:19.738Z,98926.31
2022-11-19T08:29:48.103Z,98921.28
2022-11-19T08:32:16.364Z,98921.75
2022-11-19T08:34:44.425Z,98933.16
2022-11-19T08:37:13.698Z,98931.72
2022-11-19T08:39:41.822Z,98942.41
2022-11-19T08:42:29.022Z,98888.16
2022-11-19T08:44:58.794Z,98942.47
2022-11-19T08:47:26.921Z,98939.75
2022-11-19T08:49:54.855Z,98940.78
2022-11-19T08:52:23.476Z,98934.97
2022-11-19T08:54:52.207Z,98882.63
2022-11-19T08:57:20.098Z,98874.06
2022-11-19T08:59:48.081Z,98879.72
2022-11-19T09:02:16.197Z,98914.06
2022-11-19T09:04:44.093Z,98909.22
2022-11-19T09:07:12.158Z,98914.47
2022-11-19T09:09:40.331Z,98918.41
2022-11-19T09:12:09.041Z,98917.19
2022-11-19T09:14:38.167Z,98865.59
2022-11-19T09:17:06.234Z,98913.84
2022-11-19T09:19:34.000Z,98917.06
2022-11-19T09:22:02.540Z,98903.09
2022-11-19T09:24:30.450Z,98904.94
2022-11-19T09:27:02.087Z,98927.41
2022-11-19T09:29:30.855Z,98932.34
2022-11-19T09:31:59.022Z,98920.47
2022-11-19T09:34:26.911Z,98923.47
2022-11-19T09:36:55.923Z,98926.94
2022-11-19T09:39:25.438Z,98890.09
2022-11-19T09:42:22.737Z,98934.97
2022-11-19T09:45:19.183Z,98810.38
2022-11-19T09:48:23.675Z,98891.63
2022-11-19T09:51:00.325Z,98946.97
2022-11-19T09:53:36.118Z,98938.91
2022-11-19T09:56:06.022Z,98947.78
2022-11-19T09:58:43.567Z,98946.53
2022-11-19T10:01:19.602Z,98946.00
2022-11-19T10:03:54.176Z,98941.88
2022-11-19T10:06:43.962Z,98939.81
2022-11-19T10:09:44.658Z,98951.88
2022-11-19T10:13:12.106Z,98940.53
2022-11-19T10:15:51.536Z,98943.56
2022-11-19T10:19:27.124Z,98948.06
2022-11-19T10:22:22.778Z,98957.16
2022-11-19T10:25:20.742Z,98940.25
2022-11-19T10:28:02.268Z,98874.59
2022-11-19T10:30:31.372Z,98890.34
2022-11-19T10:33:28.178Z,98928.38
2022-11-19T10:36:04.915Z,98951.69
2022-11-19T10:38:49.939Z,98946.25
2022-11-19T10:41:32.089Z,98955.69
2022-11-19T10:44:43.343Z,98955.59
2022-11-19T10:51:44.847Z,98976.25
2022-11-19T10:54:28.008Z,98942.34
2022-11-19T10:56:58.243Z,98989.88
2022-11-19T10:59:30.603Z,98940.97
2022-11-19T11:02:15.830Z,98951.00
2022-11-19T11:05:07.332Z,98949.72
2022-11-19T11:07:58.048Z,98994.84
2022-11-19T11:10:36.326Z,98974.09
2022-11-19T11:13:49.433Z,98985.84
2022-11-19T11:16:22.305Z,98975.88
2022-11-19T11:18:55.382Z,98971.16
2022-11-19T11:21:38.573Z,98976.03
2022-11-19T11:24:08.508Z,98982.63
2022-11-19T11:26:38.015Z,98992.91
2022-11-19T11:29:15.284Z,99001.69
2022-11-19T11:31:47.839Z,98989.63
2022-11-19T11:34:36.927Z,99006.09
2022-11-19T11:37:08.817Z,98996.88
2022-11-19T11:39:44.856Z,98990.44
2022-11-19T11:42:19.667Z,99011.00
2022-11-19T11:45:03.152Z,99000.56
2022-11-19T11:47:38.118Z,99010.38
2022-11-19T11:50:22.553Z,99020.75
2022-11-19T11:52:54.955Z,99014.19
2022-11-19T11:55:23.798Z,98964.72
2022-11-19T11:58:05.145Z,98931.06
2022-11-19T12:00:43.211Z,99021.19
2022-11-19T12:03:21.132Z,99011.03
2022-11-19T12:06:09.315Z,99003.25
2022-11-19T12:08:51.070Z,99001.91
2022-11-19T12:11:58.224Z,99015.22
2022-11-19T12:14:44.607Z,99005.72
2022-11-19T12:17:47.794Z,99001.81
2022-11-19T12:20:34.052Z,99006.13
2022-11-19T12:23:20.768Z,99012.66
2022-11-19T12:26:12.825Z,98974.09
2022-11-19T12:28:59.261Z,99016.97
2022-11-19T12:31:29.886Z,99019.88
2022-11-19T12:34:53.881Z,99023.06
2022-11-19T12:37:38.563Z,99033.50
2022-11-19T12:40:49.694Z,99032.75
2022-11-19T12:44:04.002Z,98988.50
2022-11-19T12:46:50.652Z,99043.97
2022-11-19T12:49:33.719Z,99039.66
2022-11-19T12:52:10.909Z,99036.41
2022-11-19T12:54:44.704Z,99039.34
2022-11-19T12:57:48.840Z,99044.38
2022-11-19T13:00:24.158Z,99049.78
2022-11-19T13:03:15.289Z,99044.94
2022-11-19T13:06:05.246Z,99005.91
2022-11-19T13:08:45.928Z,99050.41
2022-11-19T13:11:43.273Z,99051.75
2022-11-19T13:14:35.902Z,99039.94
2022-11-19T13:17:07.764Z,99033.94
2022-11-19T13:19:39.867Z,99031.44
2022-11-19T13:22:20.522Z,99044.00
2022-11-19T13:25:12.585Z,99043.06
2022-11-19T13:27:41.028Z,99049.81
2022-11-19T13:30:22.252Z,99007.75
2022-11-19T13:33:20.303Z,99064.41
2022-11-19T13:36:08.013Z,99030.19
2022-11-19T13:38:49.233Z,99071.63
2022-11-19T13:41:34.225Z,99101.63
2022-11-19T13:44:20.932Z,99086.88
2022-11-19T13:46:59.121Z,99098.41
2022-11-19T13:49:51.198Z,99107.75
2022-11-19T13:52:31.299Z,99117.69
2022-11-19T13:55:01.131Z,99106.19
2022-11-19T13:57:42.880Z,99096.63
2022-11-19T14:00:26.764Z,99068.19
2022-11-19T14:03:22.290Z,99043.19
2022-11-19T14:06:33.262Z,99121.94
2022-11-19T14:09:23.870Z,99120.31
2022-11-19T14:12:27.978Z,99103.00
2022-11-19T14:15:38.433Z,99103.75
2022-11-19T14:19:11.006Z,99106.47
2022-11-19T14:21:57.413Z,99118.72
2022-11-19T14:24:46.403Z,99129.16
2022-11-19T14:27:29.317Z,99120.84
2022-11-19T14:30:16.305Z,99101.88
2022-11-19T14:32:52.894Z,99147.53
2022-11-19T14:35:27.282Z,99164.66
2022-11-19T14:38:13.967Z,99153.78
2022-11-19T14:40:43.951Z,99163.78
2022-11-19T14:43:30.444Z,99160.06
2022-11-19T14:46:08.879Z,99168.06
2022-11-19T14:48:40.282Z,99119.44
2022-11-19T14:51:15.369Z,99162.50
2022-11-19T14:54:16.344Z,99167.50
2022-11-19T14:56:49.750Z,99155.28
2022-11-19T14:59:22.919Z,99170.19
2022-11-19T15:01:58.778Z,99166.19
2022-11-19T15:04:37.034Z,99122.28
2022-11-19T15:07:14.370Z,99141.22
2022-11-19T15:10:10.435Z,99161.38
2022-11-19T15:12:43.999Z,99173.78
2022-11-19T15:15:21.235Z,99166.22
2022-11-19T15:18:02.385Z,99179.38
2022-11-19T15:21:27.573Z,99168.22
2022-11-19T15:24:57.483Z,99181.63
2022-11-19T15:28:18.693Z,99184.06
2022-11-19T15:31:04.036Z,99131.41
2022-11-19T15:34:20.827Z,99175.34
2022-11-19T15:36:55.765Z,99184.91
2022-11-19T15:39:36.577Z,99180.75
2022-11-19T15:42:12.935Z,99190.38
2022-11-19T15:44:59.840Z,99196.63
2022-11-19T15:47:41.118Z,99204.97
2022-11-19T15:50:24.227Z,99184.88
2022-11-19T15:53:22.602Z,99153.75
2022-11-19T15:56:03.909Z,99206.34
2022-11-19T15:58:41.488Z,99199.88
2022-11-19T16:01:15.023Z,99176.47
2022-11-19T16:03:43.162Z,99181.72
2022-11-19T16:06:24.083Z,99206.56
2022-11-19T16:08:55.220Z,99223.59
2022-11-19T16:11:47.637Z,99224.53
2022-11-19T16:14:44.110Z,99217.22
2022-11-19T16:17:39.870Z,99220.25
2022-11-19T16:20:11.636Z,99223.34
2022-11-19T16:23:04.334Z,99216.44
2022-11-19T16:25:38.136Z,99233.66
2022-11-19T16:28:27.995Z,99246.13
2022-11-19T16:31:03.085Z,99241.25
2022-11-19T16:33:33.609Z,99196.56
2022-11-19T16:36:20.208Z,99206.91
2022-11-19T16:38:52.392Z,99258.56
2022-11-19T16:41:44.093Z,99213.84
2022-11-19T16:44:17.139Z,99261.16
2022-11-19T16:46:45.997Z,99261.03
2022-11-19T16:49:42.942Z,99260.78
2022-11-19T16:52:12.173Z,99212.81
2022-11-19T16:54:51.736Z,99273.19
2022-11-19T16:57:24.190Z,99258.34
2022-11-19T16:59:57.074Z,99263.78
2022-11-19T17:02:37.588Z,99264.03
2022-11-19T17:05:14.889Z,99261.97
2022-11-19T17:07:50.278Z,99231.16
2022-11-19T17:10:31.297Z,99270.09
2022-11-19T17:13:04.267Z,99242.41
2022-11-19T17:15:45.248Z,99223.50
2022-11-19T17:18:36.841Z,99265.75
2022-11-19T17:21:21.299Z,99267.03
2022-11-19T17:23:51.634Z,99256.72
2022-11-19T17:26:25.969Z,99158.88
2022-11-19T17:29:22.822Z,99200.22
2022-11-19T17:31:57.147Z,99254.44
2022-11-19T17:34:44.524Z,99243.38
2022-11-19T17:37:12.782Z,99250.28
2022-11-19T17:39:40.827Z,99261.34
2022-11-19T17:42:29.499Z,99220.41
2022-11-19T17:44:57.747Z,99254.13
2022-11-19T17:47:25.908Z,99259.94
2022-11-19T17:49:54.572Z,99249.13
2022-11-19T17:52:24.364Z,99248.72
2022-11-19T17:54:56.524Z,99260.56
2022-11-19T17:57:25.051Z,99257.53
2022-11-19T17:59:53.027Z,99256.75
2022-11-19T18:02:21.686Z,99264.09
2022-11-19T18:04:50.234Z,99251.47
2022-11-19T18:07:18.275Z,99258.69
2022-11-19T18:09:46.523Z,99220.84
2022-11-19T18:12:18.986Z,99235.06
2022-11-19T18:14:47.879Z,99267.97
2022-11-19T18:17:16.736Z,99265.63
2022-11-19T18:19:44.738Z,99263.09
2022-11-19T18:22:20.416Z,99265.97
2022-11-19T18:24:50.484Z,99217.00
2022-11-19T18:27:18.711Z,99275.56
2022-11-19T18:29:47.032Z,99272.28
2022-11-19T18:32:17.498Z,99278.94
2022-11-19T18:34:46.408Z,99294.66
2022-11-19T18:37:14.586Z,99271.69
2022-11-19T18:39:42.579Z,99247.97
2022-11-19T18:42:14.096Z,99275.03
2022-11-19T18:44:43.772Z,99259.25
2022-11-19T18:47:14.957Z,99238.22
2022-11-19T18:49:43.010Z,99291.03
2022-11-19T18:52:16.720Z,99292.19
2022-11-19T18:54:45.210Z,99278.31
2022-11-19T18:57:13.898Z,99235.59
2022-11-19T18:59:42.248Z,99230.59
2022-11-19T19:02:11.327Z,99273.75
2022-11-19T19:04:39.496Z,99290.16
2022-11-19T19:07:07.858Z,99250.50
2022-11-19T19:09:37.668Z,99302.34
2022-11-19T19:12:18.458Z,99291.75
2022-11-19T19:14:51.793Z,99293.56
2022-11-19T19:17:20.476Z,99291.75
2022-11-19T19:19:49.945Z,99288.56
2022-11-19T19:22:18.688Z,99245.50
2022-11-19T19:24:47.259Z,99303.94
2022-11-19T19:27:15.773Z,99309.28
2022-11-19T19:29:44.438Z,99291.50
2022-11-19T19:32:12.646Z,99307.78
2022-11-19T19:34:41.342Z,99311.31
2022-11-19T19:37:09.501Z,99264.06
2022-11-19T19:39:56.245Z,99318.66
2022-11-19T19:42:24.993Z,99316.25
2022-11-19T19:44:53.183Z,99315.25
2022-11-19T19:47:21.206Z,99302.31
2022-11-19T19:49:49.732Z,99282.25
2022-11-19T19:52:20.188Z,99312.97
2022-11-19T19:54:48.431Z,99318.59
2022-11-19T19:57:16.581Z,99310.81
2022-11-19T19:59:44.697Z,99296.88
2022-11-19T20:02:13.147Z,99320.81
2022-11-19T20:04:42.143Z,99324.41
2022-11-19T20:07:11.094Z,99327.03
2022-11-19T20:09:39.295Z,99329.59
2022-11-19T20:12:07.683Z,99291.63
2022-11-19T20:14:36.148Z,99326.22
2022-11-19T20:17:04.310Z,99271.84
2022-11-19T20:19:32.633Z,99326.06
2022-11-19T20:22:01.828Z,99295.53
2022-11-19T20:24:30.085Z,99249.94
2022-11-19T20:26:59.054Z,99320.88
2022-11-19T20:29:27.381Z,99269.47
2022-11-19T20:31:55.847Z,99303.53
2022-11-19T20:34:24.557Z,99330.03
2022-11-19T20:36:54.010Z,99268.34
2022-11-19T20:39:22.731Z,99317.41
2022-11-19T20:42:09.937Z,99318.56
2022-11-19T20:44:38.371Z,99313.44
2022-11-19T20:47:06.496Z,99257.66
2022-11-19T20:49:40.892Z,99320.47
2022-11-19T20:52:11.035Z,99323.16
2022-11-19T20:54:39.208Z,99316.44
2022-11-19T20:57:08.370Z,99310.34
2022-11-19T20:59:36.732Z,99260.44
2022-11-19T21:02:04.880Z,99305.53
2022-11-19T21:04:36.854Z,99300.66
2022-11-19T21:07:06.019Z,99273.28
2022-11-19T21:09:34.472Z,99269.81
2022-11-19T21:12:02.539Z,99311.31
2022-11-19T21:14:30.679Z,99314.78
2022-11-19T21:16:58.818Z,99313.78
2022-11-19T21:19:27.116Z,99313.00
2022-11-19T21:21:55.770Z,99285.00
2022-11-19T21:24:23.712Z,99294.34
2022-11-19T21:26:52.658Z,99326.53
2022-11-19T21:29:21.235Z,99317.28
2022-11-19T21:31:49.543Z,99326.75
2022-11-19T21:34:20.835Z,99310.72
2022-11-19T21:36:50.605Z,99328.44
2022-11-19T21:39:22.031Z,99321.06
2022-11-19T21:41:50.122Z,99331.59
2022-11-19T21:44:21.559Z,99315.06
2022-11-19T21:46:50.824Z,99322.91
2022-11-19T21:49:19.596Z,99331.59
2022-11-19T21:51:49.327Z,99323.09
2022-11-19T21:54:19.007Z,99324.00
2022-11-19T21:56:47.533Z,99329.59
2022-11-19T21:59:15.560Z,99285.94
2022-11-19T22:01:43.824Z,99326.91
2022-11-19T22:04:15.766Z,99334.59
2022-11-19T22:06:43.971Z,99272.47
2022-11-19T22:09:12.111Z,99328.22
2022-11-19T22:11:40.327Z,99331.06
2022-11-19T22:14:09.884Z,99312.47
2022-11-19T22:16:40.696Z,99314.78
2022-11-19T22:19:11.285Z,99318.50
2022-11-19T22:21:40.543Z,99324.94
2022-11-19T22:24:08.757Z,99338.91
2022-11-19T22:26:37.153Z,99334.81
2022-11-19T22:29:05.359Z,99341.38
2022-11-19T22:31:33.552Z,99300.44
2022-11-19T22:34:01.895Z,99280.88
2022-11-19T22:36:31.627Z,99325.75
2022-11-19T22:39:00.578Z,99331.72
2022-11-19T22:41:28.798Z,99340.53
2022-11-19T22:43:58.685Z,99340.97
2022-11-19T22:46:28.533Z,99342.78
2022-11-19T22:48:57.342Z,99328.75
2022-11-19T22:51:26.424Z,99323.69
2022-11-19T22:53:55.555Z,99289.78
2022-11-19T22:56:27.186Z,99286.88
2022-11-19T22:58:55.998Z,99337.50
2022-11-19T23:01:30.171Z,99342.69
2022-11-19T23:04:01.889Z,99348.63
2022-11-19T23:06:29.859Z,99286.50
2022-11-19T23:08:57.958Z,99302.72
2022-11-19T23:11:45.863Z,99341.56
2022-11-19T23:14:16.983Z,99326.31
2022-11-19T23:16:46.226Z,99328.72
2022-11-19T23:19:19.376Z,99333.28
2022-11-19T23:21:47.877Z,99341.31
2022-11-19T23:24:15.753Z,99342.78
2022-11-19T23:26:43.928Z,99315.16
2022-11-19T23:29:11.906Z,99331.78
2022-11-19T23:31:40.957Z,99283.13
2022-11-19T23:34:09.283Z,99326.75
2022-11-19T23:36:40.280Z,99314.50
2022-11-19T23:39:14.871Z,99305.06
2022-11-19T23:41:43.436Z,99328.88
2022-11-19T23:44:11.534Z,99285.25
2022-11-19T23:46:40.307Z,99255.50
2022-11-19T23:49:08.627Z,99306.41
2022-11-19T23:51:38.667Z,99302.31
2022-11-19T23:54:07.883Z,99258.44
2022-11-19T23:56:36.452Z,99242.66
2022-11-19T23:59:06.102Z,99307.06
